Time;durP1;ratioP1;P1;durP2;ratioP2;P2;SDS_P1;SDS_P2;PMS_P1;PMS_P2;Temp;Humidity;BMP_temperature;BMP_pressure;BME280_temperature;BME280_humidity;BME280_pressure;Samples;Min_cycle;Max_cycle;Signal;HPM_P1;HPM_P2
2023/04/26 00:02:26;;;;;;;7.90;5.80;;;;;;;10.34;85.15;100207.44;107213;1253;60984;-86
2023/04/26 00:04:56;;;;;;;5.30;4.50;;;;;;;10.27;85.11;100205.78;108058;1253;74204;-85
2023/04/26 00:07:24;;;;;;;6.70;4.60;;;;;;;10.21;85.10;100209.30;106357;1253;64775;-86
2023/04/26 00:09:51;;;;;;;15.90;6.40;;;;;;;10.16;85.48;100206.85;105743;1257;73562;-84
2023/04/26 00:12:18;;;;;;;6.10;4.70;;;;;;;10.11;85.58;100206.46;106061;1259;64118;-84
2023/04/26 00:14:45;;;;;;;7.40;4.60;;;;;;;10.08;85.96;100207.54;105919;1253;62345;-86
2023/04/26 00:17:12;;;;;;;11.10;5.20;;;;;;;10.08;86.00;100205.30;105957;1254;74067;-88
2023/04/26 00:19:39;;;;;;;7.80;5.10;;;;;;;10.08;85.77;100206.87;105863;1253;64817;-82
2023/04/26 00:22:07;;;;;;;6.20;4.90;;;;;;;10.08;85.69;100209.98;105841;1253;74151;-87
2023/04/26 00:24:34;;;;;;;6.20;5.20;;;;;;;10.08;86.00;100213.52;105790;1261;62381;-87
2023/04/26 00:27:07;;;;;;;6.70;5.00;;;;;;;10.06;86.04;100216.58;105755;1258;61249;-86
2023/04/26 00:29:35;;;;;;;6.60;4.60;;;;;;;10.05;86.30;100220.35;105558;1254;74960;-85
2023/04/26 00:32:04;;;;;;;10.10;4.80;;;;;;;10.01;85.52;100224.22;105883;1253;64545;-86
2023/04/26 00:34:35;;;;;;;8.40;4.80;;;;;;;9.99;84.90;100228.23;105806;1256;73883;-88
2023/04/26 00:37:03;;;;;;;7.40;6.00;;;;;;;9.95;85.36;100232.32;105980;1254;62903;-85
2023/04/26 00:39:30;;;;;;;8.20;4.40;;;;;;;9.91;85.05;100233.10;105922;1259;61290;-87
2023/04/26 00:41:57;;;;;;;5.60;4.60;;;;;;;9.87;84.89;100230.86;105918;1259;74583;-85
2023/04/26 00:44:24;;;;;;;8.00;4.70;;;;;;;9.85;85.30;100228.38;105547;1260;66095;-85
2023/04/26 00:46:52;;;;;;;6.60;3.80;;;;;;;9.84;85.80;100229.86;105599;1256;73524;-87
2023/04/26 00:49:22;;;;;;;8.80;5.00;;;;;;;9.82;86.01;100230.14;105633;1259;61520;-89
2023/04/26 00:51:49;;;;;;;7.00;4.80;;;;;;;9.83;86.41;100228.16;105681;1253;60209;-87
2023/04/26 00:54:16;;;;;;;5.20;4.40;;;;;;;9.85;86.22;100234.48;105828;1253;74909;-86
2023/04/26 00:56:43;;;;;;;9.90;5.20;;;;;;;9.84;85.61;100236.66;105494;1253;65931;-86
2023/04/26 00:59:10;;;;;;;8.80;5.00;;;;;;;9.80;85.26;100235.36;105750;1253;74386;-87
2023/04/26 01:01:37;;;;;;;9.70;4.80;;;;;;;9.73;85.00;100236.45;105736;1259;62448;-86
2023/04/26 01:04:04;;;;;;;7.80;5.40;;;;;;;9.66;85.25;100241.83;105830;1253;62595;-87
2023/04/26 01:06:33;;;;;;;8.80;4.70;;;;;;;9.58;85.76;100239.52;105790;1259;74714;-84
2023/04/26 01:09:05;;;;;;;9.70;6.00;;;;;;;9.50;86.07;100236.49;105704;1259;65483;-86
2023/04/26 01:11:33;;;;;;;6.90;4.80;;;;;;;9.43;86.66;100238.87;105669;1257;73796;-86
2023/04/26 01:14:00;;;;;;;7.70;5.50;;;;;;;9.37;87.04;100239.05;105544;1261;63027;-88
2023/04/26 01:16:27;;;;;;;7.80;5.10;;;;;;;9.32;87.43;100238.10;105487;1261;61517;-86
2023/04/26 01:18:55;;;;;;;8.20;5.00;;;;;;;9.29;87.75;100239.70;105838;1254;75548;-88
2023/04/26 01:21:23;;;;;;;10.00;5.90;;;;;;;9.28;87.94;100238.20;105683;1254;65010;-90
2023/04/26 01:23:50;;;;;;;11.90;5.70;;;;;;;9.25;88.15;100238.00;105713;1259;74719;-88
2023/04/26 01:26:17;;;;;;;9.30;5.30;;;;;;;9.26;88.61;100233.98;105680;1254;61380;-86
2023/04/26 01:28:48;;;;;;;7.50;5.90;;;;;;;9.25;88.93;100235.73;105687;1253;61499;-85
2023/04/26 01:31:15;;;;;;;9.80;6.20;;;;;;;9.24;89.01;100237.05;105915;1253;75862;-86
2023/04/26 01:33:42;;;;;;;9.10;5.80;;;;;;;9.22;89.07;100234.91;105752;1253;64669;-89
2023/04/26 01:36:10;;;;;;;11.70;6.80;;;;;;;9.18;89.33;100232.88;106786;1257;73533;-85
2023/04/26 01:38:38;;;;;;;6.90;5.80;;;;;;;9.17;89.44;100229.43;106570;1253;63733;-86
2023/04/26 01:41:05;;;;;;;7.60;5.90;;;;;;;9.17;89.73;100227.55;106200;1253;61049;-86
2023/04/26 01:43:32;;;;;;;13.20;6.80;;;;;;;9.19;89.95;100229.69;106386;1254;75922;-85
2023/04/26 01:45:58;;;;;;;8.20;6.10;;;;;;;9.20;89.90;100226.67;106752;1259;65168;-85
2023/04/26 01:48:28;;;;;;;7.90;6.20;;;;;;;9.22;89.96;100226.84;105898;1259;75019;-84
2023/04/26 01:50:56;;;;;;;9.30;5.80;;;;;;;9.26;90.23;100231.00;105706;1258;62277;-85
2023/04/26 01:53:22;;;;;;;11.80;6.60;;;;;;;9.26;90.87;100235.35;105660;1259;61377;-86
2023/04/26 01:55:49;;;;;;;13.90;7.50;;;;;;;9.26;91.07;100233.27;105791;1253;74080;-88
2023/04/26 01:58:16;;;;;;;9.30;6.30;;;;;;;9.25;91.01;100236.29;105704;1253;64634;-87
2023/04/26 02:00:44;;;;;;;19.20;7.20;;;;;;;9.24;91.00;100237.95;105910;1253;74554;-85
2023/04/26 02:03:11;;;;;;;13.50;5.90;;;;;;;9.21;90.97;100234.59;105642;1259;64449;-85
2023/04/26 02:05:38;;;;;;;7.50;5.80;;;;;;;9.23;90.92;100237.13;105996;1259;61098;-85
2023/04/26 02:08:05;;;;;;;11.00;6.70;;;;;;;9.24;90.86;100237.05;105903;1258;75071;-87
2023/04/26 02:10:32;;;;;;;9.50;6.50;;;;;;;9.24;90.75;100235.82;105809;1259;65723;-85
2023/04/26 02:12:59;;;;;;;8.40;5.50;;;;;;;9.23;90.87;100234.64;106005;1254;73402;-86
2023/04/26 02:15:26;;;;;;;9.90;5.50;;;;;;;9.22;90.66;100229.65;105687;1259;61433;-84
2023/04/26 02:17:55;;;;;;;7.30;5.80;;;;;;;9.23;90.60;100229.98;106200;1259;62515;-84
2023/04/26 02:20:22;;;;;;;10.30;6.00;;;;;;;9.19;90.81;100228.31;106205;1258;74816;-86
2023/04/26 02:22:50;;;;;;;8.40;5.60;;;;;;;9.14;90.79;100227.86;105769;1260;65665;-85
2023/04/26 02:25:18;;;;;;;9.50;5.80;;;;;;;9.09;90.93;100231.48;105935;1254;73578;-86
2023/04/26 02:27:45;;;;;;;6.90;5.00;;;;;;;9.05;91.16;100228.77;105776;1257;62893;-85
2023/04/26 02:30:12;;;;;;;10.10;6.10;;;;;;;9.02;91.72;100229.65;106020;1256;61267;-85
2023/04/26 02:32:39;;;;;;;6.80;4.90;;;;;;;9.01;92.16;100232.66;105854;1260;75930;-86
2023/04/26 02:35:07;;;;;;;10.20;5.40;;;;;;;9.02;92.39;100231.02;105997;1259;64723;-87
2023/04/26 02:37:34;;;;;;;8.00;5.70;;;;;;;9.03;92.56;100232.71;106302;1259;74660;-87
2023/04/26 02:40:04;;;;;;;8.10;6.60;;;;;;;9.04;92.66;100232.49;106209;1260;61026;-84
2023/04/26 02:42:31;;;;;;;11.60;6.90;;;;;;;9.05;92.71;100235.56;106035;1259;62285;-86
2023/04/26 02:44:58;;;;;;;11.10;6.40;;;;;;;9.04;92.92;100239.81;105936;1254;75987;-87
2023/04/26 02:47:25;;;;;;;9.80;5.20;;;;;;;9.03;93.12;100237.82;105704;1254;65978;-88
2023/04/26 02:49:52;;;;;;;10.20;6.60;;;;;;;9.01;93.15;100237.57;105582;1254;75420;-85
2023/04/26 02:52:19;;;;;;;12.70;5.80;;;;;;;8.98;93.21;100237.90;105991;1254;62954;-87
2023/04/26 02:54:46;;;;;;;10.50;5.60;;;;;;;8.96;93.27;100235.95;105915;1254;61437;-90
2023/04/26 02:57:14;;;;;;;9.80;5.50;;;;;;;8.95;93.33;100237.08;105773;1254;74733;-85
2023/04/26 02:59:43;;;;;;;8.60;5.80;;;;;;;8.96;93.39;100238.39;106155;1253;65997;-86
2023/04/26 03:02:12;;;;;;;8.60;5.70;;;;;;;8.97;93.54;100238.66;108952;1253;75049;-84
2023/04/26 03:04:39;;;;;;;11.90;5.90;;;;;;;8.99;93.45;100237.70;106578;1255;61838;-87
2023/04/26 03:07:06;;;;;;;12.50;6.10;;;;;;;8.99;93.33;100240.47;105747;1254;60583;-85
2023/04/26 03:09:37;;;;;;;9.70;6.60;;;;;;;8.98;93.30;100236.34;106043;1259;76155;-86
2023/04/26 03:12:07;;;;;;;14.00;7.20;;;;;;;8.97;93.39;100240.73;105786;1254;63656;-87
2023/04/26 03:14:35;;;;;;;10.70;6.50;;;;;;;8.98;93.50;100236.88;105884;1256;73337;-87
2023/04/26 03:17:02;;;;;;;14.50;6.60;;;;;;;8.98;93.54;100237.75;106122;1254;63434;-85
2023/04/26 03:19:31;;;;;;;7.50;6.50;;;;;;;8.98;93.63;100242.46;105926;1254;62414;-87
2023/04/26 03:21:58;;;;;;;7.30;5.70;;;;;;;8.98;93.71;100243.86;107704;1253;74693;-85
2023/04/26 03:24:25;;;;;;;9.60;5.20;;;;;;;8.99;93.83;100246.71;106496;1258;64466;-87
2023/04/26 03:26:52;;;;;;;9.80;6.90;;;;;;;9.01;93.81;100243.14;105728;1257;73558;-88
2023/04/26 03:29:19;;;;;;;9.90;6.90;;;;;;;9.04;94.09;100245.74;105770;1257;62545;-91
2023/04/26 03:31:46;;;;;;;12.50;6.80;;;;;;;9.07;94.22;100247.33;106072;1255;62577;-87
2023/04/26 03:34:14;;;;;;;11.90;7.60;;;;;;;9.08;94.42;100252.45;105982;1256;75773;-87
2023/04/26 03:36:41;;;;;;;13.90;7.80;;;;;;;9.10;94.59;100249.20;106693;1260;66433;-87
2023/04/26 03:39:08;;;;;;;12.90;7.50;;;;;;;9.14;94.61;100254.05;106844;1257;73859;-85
2023/04/26 03:41:38;;;;;;;10.90;7.00;;;;;;;9.20;94.68;100256.46;106018;1260;63892;-86
2023/04/26 03:44:06;;;;;;;12.00;7.50;;;;;;;9.26;94.55;100258.75;105870;1260;61842;-87
2023/04/26 03:46:33;;;;;;;10.60;7.20;;;;;;;9.38;94.68;100262.19;105757;1257;75757;-88
2023/04/26 03:49:00;;;;;;;8.90;6.50;;;;;;;9.50;94.94;100260.40;105772;1257;65114;-88
2023/04/26 03:51:27;;;;;;;16.70;8.50;;;;;;;9.62;95.16;100261.40;105924;1259;73383;-86
2023/04/26 03:53:55;;;;;;;11.70;7.80;;;;;;;9.75;95.22;100260.61;105928;1259;61007;-87
2023/04/26 03:56:22;;;;;;;9.70;6.90;;;;;;;9.86;95.24;100263.77;105470;1257;62302;-90
2023/04/26 03:58:49;;;;;;;13.90;7.60;;;;;;;9.98;95.10;100264.95;105871;1257;76100;-87
2023/04/26 04:01:18;;;;;;;12.60;7.50;;;;;;;10.12;95.00;100267.90;105597;1262;64659;-89
2023/04/26 04:03:45;;;;;;;13.40;8.00;;;;;;;10.26;94.84;100269.45;105656;1261;73980;-87
2023/04/26 04:06:15;;;;;;;12.50;7.20;;;;;;;10.42;94.36;100273.48;105638;1257;63258;-88
2023/04/26 04:08:42;;;;;;;12.60;7.20;;;;;;;10.64;94.47;100269.95;105729;1260;62252;-89
2023/04/26 04:11:09;;;;;;;12.70;7.00;;;;;;;10.90;94.05;100270.34;105645;1261;74601;-87
2023/04/26 04:13:37;;;;;;;16.90;7.60;;;;;;;11.19;93.10;100270.68;107213;1253;65632;-85
2023/04/26 04:16:05;;;;;;;18.10;8.30;;;;;;;11.51;92.20;100274.43;105970;1259;74064;-86
2023/04/26 04:18:33;;;;;;;13.40;8.70;;;;;;;11.84;91.21;100271.79;106264;1259;61504;-87
2023/04/26 04:21:00;;;;;;;10.50;7.10;;;;;;;12.11;90.17;100270.91;105703;1260;62149;-87
2023/04/26 04:23:27;;;;;;;15.00;8.30;;;;;;;12.33;88.81;100275.45;105690;1259;75748;-86
2023/04/26 04:25:54;;;;;;;9.00;6.70;;;;;;;12.52;88.15;100278.86;105873;1254;64616;-86
2023/04/26 04:28:22;;;;;;;10.50;6.50;;;;;;;12.68;86.69;100278.66;106021;1259;73560;-87
2023/04/26 04:30:49;;;;;;;13.30;6.60;;;;;;;12.89;85.72;100279.05;105919;1259;61358;-89
2023/04/26 04:33:17;;;;;;;10.50;6.40;;;;;;;13.09;84.64;100274.56;105817;1260;60968;-87
2023/04/26 04:35:45;;;;;;;15.90;7.40;;;;;;;13.29;84.00;100281.80;105880;1253;75908;-86
2023/04/26 04:38:13;;;;;;;13.20;7.20;;;;;;;13.48;83.69;100281.12;105881;1258;66388;-87
2023/04/26 04:40:40;;;;;;;13.00;6.40;;;;;;;13.69;83.58;100277.21;105999;1260;73787;-89
2023/04/26 04:43:07;;;;;;;15.00;5.90;;;;;;;13.97;83.12;100278.13;105970;1260;61002;-90
2023/04/26 04:45:36;;;;;;;11.70;6.80;;;;;;;14.36;82.08;100283.27;106294;1254;61191;-88
2023/04/26 04:48:04;;;;;;;11.10;5.60;;;;;;;14.79;81.02;100282.02;106000;1259;76118;-87
2023/04/26 04:50:31;;;;;;;15.50;7.00;;;;;;;15.20;79.72;100284.94;106091;1259;64626;-87
2023/04/26 04:52:59;;;;;;;9.60;6.60;;;;;;;15.63;77.90;100278.31;106233;1257;73478;-87
2023/04/26 04:55:27;;;;;;;11.30;7.50;;;;;;;16.00;76.62;100276.25;106000;1261;61251;-88
2023/04/26 04:57:54;;;;;;;15.50;7.40;;;;;;;16.30;74.68;100275.73;106198;1259;60903;-87
2023/04/26 05:00:22;;;;;;;13.10;6.80;;;;;;;16.60;73.65;100272.93;106308;1253;75879;-90
2023/04/26 05:02:59;;;;;;;14.30;6.10;;;;;;;17.04;70.63;100275.06;106242;1260;63741;-88
2023/04/26 05:05:27;;;;;;;16.90;7.30;;;;;;;17.54;68.60;100275.99;106315;1261;73631;-88
2023/04/26 05:07:54;;;;;;;10.30;6.60;;;;;;;18.08;66.32;100274.20;107197;1262;63440;-88
2023/04/26 05:10:21;;;;;;;16.90;6.50;;;;;;;18.61;62.88;100275.27;106848;1259;60547;-89
2023/04/26 05:12:49;;;;;;;16.00;8.70;;;;;;;19.11;59.58;100270.25;106485;1253;75152;-87
2023/04/26 05:15:16;;;;;;;15.60;7.60;;;;;;;19.56;54.19;100268.98;106719;1256;66230;-89
2023/04/26 05:17:43;;;;;;;14.00;7.70;;;;;;;19.99;52.13;100269.05;106042;1259;73401;-89
2023/04/26 05:20:17;;;;;;;18.50;7.30;;;;;;;20.44;50.65;100266.31;107176;1254;61010;-86
2023/04/26 05:22:45;;;;;;;11.00;8.30;;;;;;;20.89;46.91;100269.01;106359;1254;61934;-87
2023/04/26 05:25:12;;;;;;;21.10;11.50;;;;;;;21.19;43.74;100270.35;106128;1260;75121;-86
2023/04/26 05:27:41;;;;;;;10.00;6.50;;;;;;;21.35;42.44;100273.10;106056;1259;64936;-88
2023/04/26 05:30:31;;;;;;;12.70;6.10;;;;;;;21.55;41.97;100274.74;105959;1259;75147;-88
2023/04/26 05:33:06;;;;;;;10.50;5.90;;;;;;;21.81;40.88;100279.09;106230;1259;62275;-86
2023/04/26 05:35:39;;;;;;;14.10;6.40;;;;;;;22.02;39.76;100274.71;106136;1260;61715;-87
2023/04/26 05:38:07;;;;;;;9.80;5.50;;;;;;;22.04;39.57;100274.45;106255;1256;76374;-89
2023/04/26 05:40:35;;;;;;;14.20;6.70;;;;;;;22.16;39.65;100272.29;105985;1260;65898;-89
2023/04/26 05:43:02;;;;;;;10.50;6.30;;;;;;;22.28;39.68;100271.40;106041;1261;73515;-87
2023/04/26 05:45:30;;;;;;;12.80;7.70;;;;;;;22.47;40.23;100274.14;106046;1254;62245;-88
2023/04/26 05:47:58;;;;;;;17.10;7.20;;;;;;;22.83;40.25;100269.66;106268;1260;61244;-87
2023/04/26 05:50:25;;;;;;;9.60;6.40;;;;;;;23.30;39.08;100267.15;106024;1259;76244;-87
2023/04/26 05:52:52;;;;;;;11.50;6.60;;;;;;;23.75;37.72;100262.84;105810;1263;64896;-88
2023/04/26 05:55:20;;;;;;;11.30;6.30;;;;;;;24.11;36.86;100261.17;105767;1260;73929;-88
2023/04/26 05:57:48;;;;;;;8.30;5.90;;;;;;;24.41;35.55;100266.80;106202;1259;62185;-89
2023/04/26 06:00:15;;;;;;;10.10;6.80;;;;;;;24.60;34.17;100259.54;106055;1254;63112;-90
2023/04/26 06:02:44;;;;;;;11.50;7.10;;;;;;;24.68;33.70;100256.73;105851;1259;75492;-86
2023/04/26 06:05:14;;;;;;;9.30;5.00;;;;;;;24.76;33.52;100256.28;106011;1253;65789;-87
2023/04/26 06:07:42;;;;;;;17.20;6.50;;;;;;;24.87;33.56;100256.88;106600;1254;74668;-87
2023/04/26 06:10:11;;;;;;;7.20;5.20;;;;;;;25.10;33.49;100259.06;108246;1254;62401;-88
2023/04/26 06:12:39;;;;;;;11.70;5.90;;;;;;;25.38;33.33;100263.44;106452;1254;61709;-87
2023/04/26 06:15:07;;;;;;;9.50;5.50;;;;;;;25.70;33.01;100264.77;106030;1262;74660;-87
2023/04/26 06:17:34;;;;;;;7.70;4.80;;;;;;;26.09;32.78;100270.84;106316;1256;65140;-88
2023/04/26 06:20:02;;;;;;;8.80;4.90;;;;;;;26.53;32.39;100270.41;106419;1254;73756;-85
2023/04/26 06:22:29;;;;;;;8.20;5.00;;;;;;;26.89;31.90;100275.70;105926;1260;61289;-85
2023/04/26 06:24:57;;;;;;;11.90;5.90;;;;;;;27.21;31.66;100272.36;105886;1260;62361;-87
2023/04/26 06:27:25;;;;;;;11.90;5.20;;;;;;;27.41;30.61;100275.52;105918;1254;74645;-89
2023/04/26 06:29:53;;;;;;;10.00;5.30;;;;;;;27.56;30.40;100275.52;106067;1254;62371;-88
2023/04/26 06:32:23;;;;;;;10.30;6.10;;;;;;;27.68;30.40;100275.44;105478;1266;75016;-85
2023/04/26 06:34:50;;;;;;;11.70;7.20;;;;;;;27.83;30.34;100272.54;105741;1257;61320;-86
2023/04/26 06:37:17;;;;;;;11.90;6.50;;;;;;;27.86;30.22;100270.58;105769;1259;62806;-88
2023/04/26 06:39:45;;;;;;;15.40;7.20;;;;;;;27.89;29.89;100263.45;105910;1258;75489;-86
2023/04/26 06:42:12;;;;;;;13.20;7.40;;;;;;;27.76;30.28;100262.23;105978;1259;65816;-88
2023/04/26 06:44:48;;;;;;;16.80;8.40;;;;;;;27.74;30.54;100265.55;105718;1254;73701;-85
2023/04/26 06:47:16;;;;;;;15.20;8.10;;;;;;;27.78;30.77;100261.55;105785;1254;61413;-90
2023/04/26 06:49:43;;;;;;;13.90;7.80;;;;;;;27.86;30.81;100263.45;105924;1260;60969;-83
2023/04/26 06:52:10;;;;;;;13.70;9.10;;;;;;;28.00;30.38;100262.66;106065;1255;75765;-87
2023/04/26 06:54:37;;;;;;;14.70;9.80;;;;;;;28.11;30.95;100257.42;105777;1254;64670;-88
2023/04/26 06:57:19;;;;;;;20.40;9.80;;;;;;;28.20;30.62;100257.80;105930;1254;73727;-88
2023/04/26 06:59:46;;;;;;;19.20;9.90;;;;;;;28.16;31.12;100256.58;106007;1257;62241;-91
2023/04/26 07:02:13;;;;;;;12.00;8.80;;;;;;;28.16;30.55;100265.66;105760;1260;61387;-85
2023/04/26 07:04:42;;;;;;;15.80;7.50;;;;;;;28.12;30.59;100268.83;105733;1259;75833;-87
2023/04/26 07:07:10;;;;;;;13.60;7.70;;;;;;;28.19;30.22;100269.41;105835;1259;64879;-87
2023/04/26 07:09:39;;;;;;;12.40;7.80;;;;;;;28.17;30.07;100273.70;105995;1259;73663;-88
2023/04/26 07:12:06;;;;;;;10.30;7.50;;;;;;;28.07;30.26;100270.73;106048;1254;61300;-88
2023/04/26 07:14:37;;;;;;;16.30;8.20;;;;;;;27.91;30.41;100273.88;105967;1258;61233;-88
2023/04/26 07:17:06;;;;;;;16.10;9.80;;;;;;;27.79;31.23;100277.05;106081;1259;75955;-89
2023/04/26 07:19:33;;;;;;;11.80;8.20;;;;;;;27.78;31.47;100278.25;105824;1254;65541;-90
2023/04/26 07:22:00;;;;;;;15.50;10.30;;;;;;;27.73;30.90;100278.77;106129;1258;73675;-87
2023/04/26 07:24:27;;;;;;;19.80;10.80;;;;;;;27.55;31.35;100276.77;106161;1260;61786;-86
2023/04/26 07:26:55;;;;;;;16.00;10.00;;;;;;;27.55;32.15;100280.45;105877;1254;62286;-87
2023/04/26 07:29:22;;;;;;;15.70;9.90;;;;;;;27.67;31.29;100281.66;106238;1260;75118;-87
2023/04/26 07:31:50;;;;;;;12.70;8.50;;;;;;;27.62;30.72;100282.59;106097;1254;64813;-86
2023/04/26 07:34:17;;;;;;;16.90;8.70;;;;;;;27.41;30.24;100289.95;106799;1254;73655;-88
2023/04/26 07:36:44;;;;;;;10.20;7.70;;;;;;;27.21;30.37;100290.84;106272;1254;60445;-86
2023/04/26 07:39:12;;;;;;;17.20;6.90;;;;;;;27.22;30.27;100296.93;106240;1254;62289;-87
2023/04/26 07:41:40;;;;;;;10.50;6.50;;;;;;;27.24;29.73;100297.92;107109;1259;75722;-90
2023/04/26 07:44:10;;;;;;;10.80;6.40;;;;;;;27.06;29.73;100296.31;106194;1260;64564;-87
2023/04/26 07:46:37;;;;;;;20.90;7.90;;;;;;;26.92;30.35;100299.30;105909;1257;73624;-86
2023/04/26 07:49:04;;;;;;;18.30;10.70;;;;;;;27.02;30.18;100297.55;105798;1261;61986;-86
2023/04/26 07:51:33;;;;;;;14.90;12.10;;;;;;;27.06;29.87;100296.34;105775;1260;61195;-89
2023/04/26 07:54:00;;;;;;;11.70;4.80;;;;;;;27.19;29.73;100298.70;106392;1254;75132;-87
2023/04/26 07:56:27;;;;;;;4.40;3.30;;;;;;;27.29;28.96;100298.05;106857;1258;64415;-88
2023/04/26 07:58:55;;;;;;;5.60;2.10;;;;;;;27.41;28.18;100301.67;106865;1254;73975;-86
2023/04/26 08:01:22;;;;;;;7.80;3.80;;;;;;;27.45;27.19;100301.98;107559;1254;61438;-89
2023/04/26 08:16:08;;;;;;;4.90;3.80;;;;;;;28.27;27.06;100285.05;102824;1292;616362;-85
2023/04/26 08:18:36;;;;;;;5.50;3.40;;;;;;;28.41;26.65;100279.56;105838;1270;61384;-88
2023/04/26 08:21:04;;;;;;;5.80;3.10;;;;;;;28.52;26.81;100282.05;106482;1261;61089;-88
2023/04/26 08:23:35;;;;;;;5.70;2.80;;;;;;;28.73;25.89;100283.55;106102;1263;72216;-90
2023/04/26 08:26:02;;;;;;;4.70;2.20;;;;;;;28.84;26.43;100284.84;105569;1261;63640;-88
2023/04/26 08:28:30;;;;;;;6.80;2.50;;;;;;;28.99;25.52;100281.80;105615;1252;703480;-91
2023/04/26 08:30:57;;;;;;;4.40;2.30;;;;;;;29.07;26.92;100279.41;106199;1253;60303;-90
2023/04/26 08:33:24;;;;;;;4.90;2.10;;;;;;;29.29;25.19;100280.76;106419;1253;61091;-87
2023/04/26 08:35:52;;;;;;;4.70;2.10;;;;;;;29.38;24.00;100278.09;106127;1253;73155;-90
2023/04/26 08:38:21;;;;;;;4.40;2.00;;;;;;;29.30;22.58;100275.10;106099;1253;63377;-92
2023/04/26 08:40:48;;;;;;;4.80;2.00;;;;;;;29.18;23.12;100269.28;105989;1253;74160;-88
2023/04/26 08:43:16;;;;;;;4.70;2.30;;;;;;;29.22;23.46;100267.20;106062;1253;61433;-91
2023/04/26 08:45:46;;;;;;;3.10;1.20;;;;;;;29.21;22.88;100272.41;106188;1254;61517;-88
2023/04/26 08:48:16;;;;;;;3.90;0.90;;;;;;;29.05;22.33;100264.65;106219;1256;74159;-86
2023/04/26 08:50:45;;;;;;;1.20;1.10;;;;;;;28.80;22.27;100262.41;106292;1255;64707;-89
2023/04/26 08:53:14;;;;;;;1.40;0.80;;;;;;;28.69;22.06;100265.58;106861;1256;72606;-87
2023/04/26 08:55:41;;;;;;;2.60;1.80;;;;;;;28.48;21.69;100258.87;106262;1257;61601;-88
2023/04/26 08:58:09;;;;;;;5.70;3.60;;;;;;;28.26;22.31;100253.41;106305;1253;61792;-90
2023/04/26 09:00:36;;;;;;;3.70;1.70;;;;;;;28.28;22.45;100256.34;106210;1258;72851;-88
2023/04/26 09:03:03;;;;;;;5.20;1.70;;;;;;;28.41;22.60;100251.64;106818;1253;64049;-87
2023/04/26 09:05:31;;;;;;;2.70;1.50;;;;;;;28.59;22.55;100244.18;106792;1253;72692;-86
2023/04/26 09:08:01;;;;;;;2.50;1.50;;;;;;;28.90;21.76;100243.88;107383;1253;60556;-89
2023/04/26 09:10:31;;;;;;;;;;;;;;;28.93;21.57;100241.61;106779;1255;60645;-87
2023/04/26 09:12:58;;;;;;;3.60;1.20;;;;;;;28.87;21.77;100239.35;107601;1253;74011;-86
2023/04/26 09:15:25;;;;;;;4.20;1.80;;;;;;;28.84;20.86;100241.80;106899;1255;63746;-86
2023/04/26 09:17:53;;;;;;;6.90;2.10;;;;;;;28.63;21.10;100237.30;107295;1252;73575;-85
2023/04/26 09:23:15;;;;;;;3.80;1.70;;;;;;;28.32;22.05;100236.48;103050;1292;614882;-87
2023/04/26 09:27:02;;;;;;;2.50;1.60;;;;;;;28.27;22.15;100229.08;106358;1272;61252;-86
2023/04/26 09:29:30;;;;;;;3.50;1.10;;;;;;;28.19;22.98;100224.98;104992;1267;61531;-87
2023/04/26 09:31:57;;;;;;;7.80;1.50;;;;;;;28.36;23.22;100226.57;105475;1273;73114;-85
2023/04/26 09:34:24;;;;;;;3.20;1.10;;;;;;;28.54;23.35;100220.52;104770;1267;64783;-86
2023/04/26 09:36:58;;;;;;;4.90;1.10;;;;;;;28.72;23.51;100228.56;104502;1267;71791;-87
2023/04/26 09:39:30;;;;;;;7.40;1.00;;;;;;;28.86;23.54;100220.54;105190;1267;60422;-90
2023/04/26 09:41:58;;;;;;;2.50;1.10;;;;;;;28.99;23.61;100219.33;105837;1267;60907;-87
2023/04/26 09:44:26;;;;;;;8.20;1.30;;;;;;;28.99;24.02;100213.35;106031;1267;73331;-89
2023/04/26 09:47:09;;;;;;;2.70;1.20;;;;;;;29.05;24.21;100221.92;106054;1266;64328;-87
2023/04/26 09:49:43;;;;;;;2.90;1.30;;;;;;;29.13;24.69;100220.04;106423;1263;73702;-86
2023/04/26 09:52:10;;;;;;;4.90;1.10;;;;;;;29.21;24.33;100214.94;107014;1263;60690;-86
2023/04/26 09:54:46;;;;;;;5.40;1.30;;;;;;;29.21;24.32;100214.73;107486;1263;60599;-84
2023/04/26 09:57:15;;;;;;;3.00;0.90;;;;;;;29.34;24.34;100215.00;106542;1262;73993;-87
2023/04/26 09:59:43;;;;;;;3.10;1.00;;;;;;;29.37;24.06;100218.80;105746;1266;63816;-88
2023/04/26 10:02:18;;;;;;;4.40;1.40;;;;;;;29.34;24.60;100214.33;106151;1263;72583;-88
2023/04/26 10:04:48;;;;;;;3.90;2.80;;;;;;;29.46;24.56;100210.91;106839;1257;61131;-88
2023/04/26 10:07:17;;;;;;;6.90;2.40;;;;;;;29.53;24.27;100212.20;106554;1257;60900;-86
2023/04/26 10:09:44;;;;;;;2.60;0.80;;;;;;;29.55;23.97;100205.81;106658;1257;74027;-84
2023/04/26 10:12:12;;;;;;;7.50;1.00;;;;;;;29.35;23.72;100207.17;106180;1261;64873;-87
2023/04/26 10:14:40;;;;;;;2.20;0.90;;;;;;;29.11;23.66;100209.17;106146;1262;73731;-87
2023/04/26 10:17:08;;;;;;;2.50;0.60;;;;;;;28.90;23.50;100203.22;105745;1259;61747;-89
2023/04/26 10:19:35;;;;;;;4.20;0.90;;;;;;;28.74;23.50;100202.34;105678;1260;62511;-86
2023/04/26 10:22:22;;;;;;;3.50;1.00;;;;;;;28.60;23.74;100198.23;105954;1259;74390;-87
2023/04/26 10:24:50;;;;;;;4.00;0.90;;;;;;;28.78;24.20;100197.61;105988;1254;63744;-89
2023/04/26 10:27:49;;;;;;;4.70;0.50;;;;;;;29.00;23.32;100200.67;106249;1253;73679;-87
2023/04/26 10:30:20;;;;;;;3.30;1.00;;;;;;;28.96;22.06;100202.05;107130;1253;61452;-88
2023/04/26 10:32:56;;;;;;;10.30;6.50;;;;;;;28.70;22.56;100199.27;105785;1253;60318;-88
2023/04/26 10:35:28;;;;;;;6.40;1.50;;;;;;;28.77;23.49;100200.62;106082;1255;73288;-89
2023/04/26 10:37:58;;;;;;;4.60;2.60;;;;;;;28.97;23.69;100201.39;105909;1253;64838;-87
2023/04/26 10:40:28;;;;;;;2.80;1.50;;;;;;;28.99;23.41;100207.38;107019;1253;72167;-88
2023/04/26 10:43:18;;;;;;;6.00;2.90;;;;;;;29.03;23.39;100201.63;106965;1254;60160;-87
2023/04/26 10:45:45;;;;;;;2.80;1.40;;;;;;;29.09;23.17;100201.80;105916;1253;61360;-87
2023/04/26 10:48:29;;;;;;;3.80;1.00;;;;;;;28.94;23.16;100201.73;106105;1253;73012;-88
2023/04/26 10:51:00;;;;;;;4.20;1.50;;;;;;;28.86;24.00;100206.83;106107;1254;64762;-87
2023/04/26 10:53:31;;;;;;;6.10;1.30;;;;;;;28.86;22.83;100202.69;106656;1254;72401;-91
2023/04/26 10:55:58;;;;;;;6.10;1.40;;;;;;;28.60;21.84;100197.48;105880;1257;61389;-88
2023/04/26 10:58:32;;;;;;;2.10;1.10;;;;;;;28.35;22.87;100196.91;105878;1258;60665;-88
2023/04/26 11:01:03;;;;;;;2.70;1.30;;;;;;;28.15;23.86;100201.75;105927;1254;72993;-89
2023/04/26 11:03:31;;;;;;;3.40;1.10;;;;;;;28.09;24.68;100196.76;106278;1257;65745;-87
2023/04/26 11:05:58;;;;;;;9.10;1.70;;;;;;;28.11;25.35;100197.95;105991;1257;74138;-86
2023/04/26 11:08:27;;;;;;;2.90;1.50;;;;;;;28.20;25.83;100199.14;106152;1257;61396;-87
2023/04/26 11:11:03;;;;;;;9.60;3.00;;;;;;;28.29;25.97;100204.84;105949;1257;60661;-88
2023/04/26 11:13:38;;;;;;;4.70;2.20;;;;;;;28.31;26.43;100198.77;106264;1253;73958;-89
2023/04/26 11:16:09;;;;;;;5.40;2.40;;;;;;;28.28;26.48;100202.19;106463;1253;64351;-89
2023/04/26 11:18:39;;;;;;;7.20;3.50;;;;;;;28.05;27.45;100198.83;106181;1253;73835;-86
2023/04/26 11:21:06;;;;;;;8.40;2.80;;;;;;;27.83;28.24;100194.50;106040;1254;60213;-89
2023/04/26 11:23:34;;;;;;;4.50;2.10;;;;;;;27.77;28.74;100199.54;106299;1253;60282;-84
2023/04/26 11:26:05;;;;;;;3.30;1.60;;;;;;;27.71;27.66;100199.61;106283;1254;74004;-89
2023/04/26 11:28:35;;;;;;;4.40;1.50;;;;;;;27.63;27.89;100200.85;106049;1258;64863;-87
2023/04/26 11:31:02;;;;;;;4.20;1.20;;;;;;;27.51;27.13;100202.81;106221;1253;72820;-88
2023/04/26 11:33:30;;;;;;;4.40;1.20;;;;;;;27.44;27.00;100205.13;106557;1257;61461;-89
2023/04/26 11:35:59;;;;;;;3.40;1.60;;;;;;;27.44;27.23;100205.52;106353;1254;61520;-87
2023/04/26 11:38:27;;;;;;;5.30;1.70;;;;;;;27.39;26.81;100206.91;106720;1253;73893;-89
2023/04/26 11:41:00;;;;;;;13.70;8.70;;;;;;;27.07;26.76;100199.77;106557;1253;64278;-85